Deodapolis, Brazil
Current Conditions -  °F | °C
As of 5:00 AM on Friday 24 Oct 2014 (Local Time) from SBCG Reporting Station
Scattered Clouds Scattered Clouds  
Wind Chill: 68°   Ceiling: Unl
Heat Index: 68°   Visibility: 6mi
Dew Point: 66°   Wind: 5mph
Humidity: 94%   Direction: 320°NW
Pressure: 29.94"   Gusts: NA
Location:  22.28°S, 54.16°W
Report Text: SBCG 240800Z 32004KT 9999 SCT040 FEW045TCU 20/19 Q1014
Loading
Personal Weather Stations






























Interactive Weather Map
Tropical Storm Tracking
New forecast layout! Learn more

10-Day Weather Forecast

Advertisements
Track Severe Weather on mobile